createdAt,value
2018-08-27T00:00:58.082Z,1.50
2018-08-27T00:03:27.065Z,1.67
2018-08-27T00:05:55.637Z,1.80
2018-08-27T00:08:24.161Z,1.50
2018-08-27T00:10:52.561Z,1.50
2018-08-27T00:13:20.957Z,1.33
2018-08-27T00:15:49.377Z,1.40
2018-08-27T00:18:17.788Z,1.50
2018-08-27T00:20:46.445Z,1.60
2018-08-27T00:23:14.851Z,1.57
2018-08-27T00:25:43.316Z,1.83
2018-08-27T00:28:11.708Z,1.80
2018-08-27T00:30:40.189Z,2.30
2018-08-27T00:33:08.597Z,1.50
2018-08-27T00:35:37.021Z,1.47
2018-08-27T00:38:05.415Z,1.87
2018-08-27T00:40:33.818Z,1.60
2018-08-27T00:43:02.221Z,1.67
2018-08-27T00:45:30.687Z,1.70
2018-08-27T00:47:59.145Z,1.67
2018-08-27T00:50:27.602Z,1.93
2018-08-27T00:52:56.017Z,1.03
2018-08-27T00:55:25.025Z,1.80
2018-08-27T00:57:53.442Z,1.60
2018-08-27T01:00:21.821Z,1.50
2018-08-27T01:02:50.229Z,1.93
2018-08-27T01:05:18.786Z,2.10
2018-08-27T01:07:47.204Z,1.90
2018-08-27T01:10:15.670Z,2.20
2018-08-27T01:12:44.135Z,1.70
2018-08-27T01:15:12.602Z,1.90
2018-08-27T01:17:41.052Z,1.90
2018-08-27T01:20:09.474Z,1.70
2018-08-27T01:22:37.992Z,2.10
2018-08-27T01:25:06.649Z,2.13
2018-08-27T01:27:35.077Z,2.00
2018-08-27T01:30:03.517Z,2.30
2018-08-27T01:32:32.374Z,1.87
2018-08-27T01:35:00.784Z,2.10
2018-08-27T01:37:29.186Z,2.13
2018-08-27T01:39:57.649Z,1.80
2018-08-27T01:42:26.869Z,1.70
2018-08-27T01:44:55.693Z,1.70
2018-08-27T01:47:24.105Z,1.67
2018-08-27T01:49:52.525Z,1.97
2018-08-27T01:52:20.917Z,1.90
2018-08-27T01:54:49.338Z,2.10
2018-08-27T01:57:17.725Z,1.83
2018-08-27T01:59:46.170Z,1.80
2018-08-27T02:02:14.604Z,1.80
2018-08-27T02:04:43.156Z,2.07
2018-08-27T02:07:11.567Z,1.97
2018-08-27T02:09:39.967Z,1.97
2018-08-27T02:12:08.461Z,2.33
2018-08-27T02:14:36.909Z,1.63
2018-08-27T02:17:05.467Z,2.13
2018-08-27T02:19:33.908Z,2.10
2018-08-27T02:22:02.325Z,2.20
2018-08-27T02:24:30.737Z,1.93
2018-08-27T02:26:59.182Z,2.00
2018-08-27T02:29:27.604Z,1.87
2018-08-27T02:31:55.986Z,2.53
2018-08-27T02:34:24.381Z,2.10
2018-08-27T02:36:52.866Z,2.10
2018-08-27T02:39:21.320Z,2.20
2018-08-27T02:41:49.892Z,2.03
2018-08-27T02:44:18.297Z,2.33
2018-08-27T02:46:46.706Z,2.33
2018-08-27T02:49:15.093Z,3.10
2018-08-27T02:51:43.529Z,2.40
2018-08-27T02:54:28.542Z,2.37
2018-08-27T02:56:57.076Z,2.33
2018-08-27T02:59:25.470Z,2.30
2018-08-27T03:01:53.925Z,2.63
2018-08-27T03:04:22.386Z,2.60
2018-08-27T03:06:51.055Z,2.17
2018-08-27T03:09:19.440Z,2.00
2018-08-27T03:11:47.837Z,2.10
2018-08-27T03:14:16.245Z,2.20
2018-08-27T03:16:44.665Z,2.13
2018-08-27T03:19:13.078Z,2.13
2018-08-27T03:21:41.498Z,2.67
2018-08-27T03:24:09.916Z,2.20
2018-08-27T03:26:38.373Z,2.13
2018-08-27T03:29:06.836Z,2.00
2018-08-27T03:31:35.254Z,1.90
2018-08-27T03:34:03.949Z,1.73
2018-08-27T03:36:32.440Z,2.13
2018-08-27T03:39:00.938Z,2.20
2018-08-27T03:41:29.490Z,1.67
2018-08-27T03:43:58.110Z,2.10
2018-08-27T03:46:26.611Z,1.80
2018-08-27T03:48:55.239Z,1.87
2018-08-27T03:51:23.707Z,1.87
2018-08-27T03:53:52.210Z,2.13
2018-08-27T03:56:20.710Z,1.87
2018-08-27T03:58:49.183Z,2.27
2018-08-27T04:01:17.626Z,1.87
2018-08-27T04:03:45.988Z,2.00
2018-08-27T04:06:14.354Z,1.63
2018-08-27T04:08:42.847Z,1.50
2018-08-27T04:11:11.202Z,1.67
2018-08-27T04:13:39.633Z,1.97
2018-08-27T04:16:08.003Z,1.60
2018-08-27T04:18:36.396Z,1.73
2018-08-27T04:21:04.768Z,1.40
2018-08-27T04:23:33.168Z,1.90
2018-08-27T04:26:01.549Z,1.50
2018-08-27T04:28:29.901Z,1.87
2018-08-27T04:30:58.567Z,1.67
2018-08-27T04:33:26.918Z,1.70
2018-08-27T04:35:55.785Z,1.57
2018-08-27T04:38:24.154Z,1.70
2018-08-27T04:40:52.526Z,1.63
2018-08-27T04:43:20.885Z,1.30
2018-08-27T04:45:49.246Z,1.70
2018-08-27T04:48:17.597Z,1.67
2018-08-27T04:50:46.006Z,2.10
2018-08-27T04:53:14.354Z,1.50
2018-08-27T04:55:42.794Z,1.60
2018-08-27T04:58:11.187Z,1.70
2018-08-27T05:00:40.937Z,2.00
2018-08-27T05:03:10.286Z,1.63
2018-08-27T05:05:38.730Z,1.57
2018-08-27T05:08:07.153Z,1.50
2018-08-27T05:10:36.107Z,1.13
2018-08-27T05:13:04.699Z,1.37
2018-08-27T05:15:33.339Z,1.83
2018-08-27T05:18:01.751Z,1.63
2018-08-27T05:20:30.182Z,1.77
2018-08-27T05:22:58.589Z,1.60
2018-08-27T05:25:26.993Z,1.27
2018-08-27T05:27:55.397Z,1.43
2018-08-27T05:30:23.789Z,2.07
2018-08-27T05:32:52.226Z,1.10
2018-08-27T05:35:20.660Z,1.10
2018-08-27T05:37:49.057Z,1.17
2018-08-27T05:40:17.428Z,1.70
2018-08-27T05:42:45.809Z,1.50
2018-08-27T05:45:14.191Z,1.27
2018-08-27T05:47:42.643Z,1.37
2018-08-27T05:50:11.026Z,1.03
2018-08-27T05:52:39.414Z,1.33
2018-08-27T05:55:07.921Z,0.97
2018-08-27T05:57:36.327Z,1.17
2018-08-27T06:00:06.716Z,1.27
2018-08-27T06:02:38.134Z,1.37
2018-08-27T06:05:06.853Z,1.27
2018-08-27T06:07:35.482Z,1.00
2018-08-27T06:10:04.169Z,1.13
2018-08-27T06:12:32.588Z,1.00
2018-08-27T06:15:01.138Z,1.13
2018-08-27T06:17:32.427Z,1.10
2018-08-27T06:20:01.001Z,1.20
2018-08-27T06:22:29.505Z,1.20
2018-08-27T06:24:57.840Z,1.30
2018-08-27T06:27:26.238Z,1.30
2018-08-27T06:29:54.650Z,1.30
2018-08-27T06:32:23.108Z,1.60
2018-08-27T06:34:51.510Z,1.27
2018-08-27T06:37:19.904Z,1.57
2018-08-27T06:39:48.441Z,1.10
2018-08-27T06:42:16.855Z,1.40
2018-08-27T06:44:45.281Z,1.30
2018-08-27T06:47:13.677Z,1.40
2018-08-27T06:49:42.077Z,1.27
2018-08-27T06:52:10.574Z,1.43
2018-08-27T06:54:39.009Z,1.40
2018-08-27T06:57:07.417Z,1.20
2018-08-27T06:59:35.802Z,1.10
2018-08-27T07:02:04.226Z,1.17
2018-08-27T07:04:32.616Z,1.23
2018-08-27T07:07:00.998Z,0.93
2018-08-27T07:09:29.393Z,1.40
2018-08-27T07:11:57.785Z,0.90
2018-08-27T07:14:26.258Z,1.00
2018-08-27T07:16:54.684Z,1.17
2018-08-27T07:19:23.086Z,1.17
2018-08-27T07:21:51.456Z,0.97
2018-08-27T07:24:19.885Z,1.07
2018-08-27T07:26:48.245Z,0.80
2018-08-27T07:29:16.630Z,1.23
2018-08-27T07:31:45.014Z,0.90
2018-08-27T07:34:13.492Z,1.10
2018-08-27T07:36:41.985Z,1.30
2018-08-27T07:39:21.529Z,0.83
2018-08-27T07:41:49.905Z,0.90
2018-08-27T07:44:18.276Z,1.20
2018-08-27T07:46:46.649Z,0.93
2018-08-27T07:49:15.318Z,1.00
2018-08-27T07:51:43.671Z,1.13
2018-08-27T07:54:12.057Z,0.73
2018-08-27T07:56:40.503Z,0.80
2018-08-27T07:59:09.090Z,1.00
2018-08-27T08:01:47.663Z,0.97
2018-08-27T08:04:16.201Z,0.67
2018-08-27T08:06:44.610Z,0.80
2018-08-27T08:09:18.849Z,1.00
2018-08-27T08:11:47.283Z,0.80
2018-08-27T08:14:15.750Z,0.93
2018-08-27T08:16:44.156Z,0.90
2018-08-27T08:19:12.593Z,1.17
2018-08-27T08:21:41.055Z,1.40
2018-08-27T08:24:09.543Z,1.27
2018-08-27T08:26:37.961Z,1.00
2018-08-27T08:29:06.425Z,1.30
2018-08-27T08:31:34.854Z,1.10
2018-08-27T08:34:03.293Z,0.77
2018-08-27T08:36:31.830Z,1.90
2018-08-27T08:39:00.282Z,1.00
2018-08-27T08:41:28.722Z,0.67
2018-08-27T08:43:57.138Z,0.67
2018-08-27T08:46:25.594Z,0.60
2018-08-27T08:48:54.001Z,0.83
2018-08-27T08:51:22.497Z,0.80
2018-08-27T08:53:50.911Z,0.43
2018-08-27T08:56:36.749Z,0.70
2018-08-27T08:59:05.169Z,0.90
2018-08-27T09:01:33.626Z,0.87
2018-08-27T09:04:02.008Z,0.90
2018-08-27T09:06:30.433Z,0.80
2018-08-27T09:08:58.847Z,0.77
2018-08-27T09:11:27.262Z,2.20
2018-08-27T09:13:55.725Z,0.90
2018-08-27T09:16:24.160Z,0.80
2018-08-27T09:18:52.539Z,0.97
2018-08-27T09:21:21.050Z,1.00
2018-08-27T09:23:49.481Z,0.90
2018-08-27T09:26:17.887Z,1.03
2018-08-27T09:28:46.410Z,0.70
2018-08-27T09:31:14.936Z,0.83
2018-08-27T09:33:43.366Z,1.30
2018-08-27T09:36:11.769Z,1.30
2018-08-27T09:38:40.158Z,0.90
2018-08-27T09:41:08.602Z,0.60
2018-08-27T09:43:36.997Z,0.80
2018-08-27T09:46:05.445Z,0.90
2018-08-27T09:48:33.830Z,0.63
2018-08-27T09:51:02.218Z,0.90
2018-08-27T09:53:30.723Z,0.60
2018-08-27T09:55:59.212Z,1.37
2018-08-27T09:58:27.687Z,1.00
2018-08-27T10:01:01.392Z,0.80
2018-08-27T10:03:29.866Z,0.80
2018-08-27T10:05:58.297Z,0.57
2018-08-27T10:08:26.715Z,0.77
2018-08-27T10:10:55.212Z,1.23
2018-08-27T10:13:23.655Z,1.10
2018-08-27T10:15:52.102Z,1.30
2018-08-27T10:18:20.537Z,1.40
2018-08-27T10:20:49.001Z,1.23
2018-08-27T10:23:17.474Z,2.07
2018-08-27T10:25:45.917Z,1.33
2018-08-27T10:28:14.358Z,1.43
2018-08-27T10:30:42.750Z,1.30
2018-08-27T10:33:11.229Z,1.63
2018-08-27T10:35:39.674Z,2.00
2018-08-27T10:38:08.126Z,1.53
2018-08-27T10:40:36.551Z,1.70
2018-08-27T10:43:05.217Z,1.60
2018-08-27T10:45:33.909Z,1.60
2018-08-27T10:48:02.346Z,1.50
2018-08-27T10:50:30.792Z,1.90
2018-08-27T10:52:59.273Z,2.07
2018-08-27T10:55:27.666Z,1.93
2018-08-27T10:57:56.097Z,2.37
2018-08-27T11:00:24.489Z,2.27
2018-08-27T11:02:52.869Z,2.07
2018-08-27T11:05:21.270Z,2.37
2018-08-27T11:07:51.981Z,2.50
2018-08-27T11:10:20.629Z,2.27
2018-08-27T11:12:49.390Z,3.30
2018-08-27T11:15:18.510Z,3.00
2018-08-27T11:17:47.127Z,3.43
2018-08-27T11:20:15.611Z,3.40
2018-08-27T11:22:43.929Z,3.67
2018-08-27T11:25:12.346Z,3.90
2018-08-27T11:27:40.756Z,2.93
2018-08-27T11:30:09.562Z,3.63
2018-08-27T11:32:38.370Z,4.60
2018-08-27T11:35:07.849Z,3.73
2018-08-27T11:37:36.390Z,5.30
2018-08-27T11:40:08.378Z,5.57
2018-08-27T11:42:38.101Z,4.80
2018-08-27T11:45:06.666Z,3.90
2018-08-27T11:47:35.066Z,4.60
2018-08-27T11:50:03.644Z,4.33
2018-08-27T11:52:32.050Z,4.47
2018-08-27T11:55:00.944Z,4.50
2018-08-27T11:57:29.504Z,4.77
2018-08-27T12:00:00.292Z,4.43
2018-08-27T12:02:38.540Z,3.83
2018-08-27T12:05:06.993Z,4.77
2018-08-27T12:07:36.265Z,4.30
2018-08-27T12:10:04.798Z,4.00
2018-08-27T12:12:33.230Z,3.97
2018-08-27T12:15:01.686Z,5.07
2018-08-27T12:17:30.095Z,3.40
2018-08-27T12:19:58.539Z,3.83
2018-08-27T12:22:26.945Z,3.80
2018-08-27T12:24:56.422Z,4.20
2018-08-27T12:27:24.825Z,4.67
2018-08-27T12:29:53.285Z,3.97
2018-08-27T12:32:21.739Z,3.70
2018-08-27T12:34:50.168Z,3.27
2018-08-27T12:37:18.585Z,4.40
2018-08-27T12:39:46.997Z,4.03
2018-08-27T12:42:15.428Z,4.13
2018-08-27T12:44:43.914Z,3.87
2018-08-27T12:47:12.463Z,3.70
2018-08-27T12:49:40.941Z,2.90
2018-08-27T12:52:09.338Z,3.60
2018-08-27T12:54:37.769Z,2.80
2018-08-27T12:57:06.215Z,4.10
2018-08-27T12:59:34.634Z,3.70
2018-08-27T13:02:03.069Z,2.80
2018-08-27T13:04:31.560Z,4.43
2018-08-27T13:06:59.965Z,4.23
2018-08-27T13:09:28.457Z,4.00
2018-08-27T13:11:56.845Z,2.60
2018-08-27T13:14:25.258Z,4.17
2018-08-27T13:16:53.657Z,3.70
2018-08-27T13:19:22.073Z,3.40
2018-08-27T13:21:50.595Z,2.70
2018-08-27T13:24:19.033Z,3.80
2018-08-27T13:26:47.708Z,3.33
2018-08-27T13:29:16.146Z,3.53
2018-08-27T13:31:44.692Z,3.10
2018-08-27T13:34:13.101Z,4.10
2018-08-27T13:36:41.522Z,3.40
2018-08-27T13:39:10.817Z,3.67
2018-08-27T13:41:39.245Z,3.17
2018-08-27T13:44:07.683Z,3.70
2018-08-27T13:46:36.120Z,3.60
2018-08-27T13:49:04.570Z,3.73
2018-08-27T13:51:48.765Z,3.50
2018-08-27T13:54:17.943Z,3.27
2018-08-27T13:56:46.578Z,2.93
2018-08-27T13:59:14.979Z,3.60
2018-08-27T14:01:43.405Z,2.90
2018-08-27T14:04:11.837Z,3.50
2018-08-27T14:06:40.254Z,2.57
2018-08-27T14:09:09.164Z,4.33
2018-08-27T14:11:37.681Z,3.53
2018-08-27T14:14:06.240Z,3.03
2018-08-27T14:16:35.171Z,3.63
2018-08-27T14:19:03.673Z,2.90
2018-08-27T14:21:32.071Z,3.20
2018-08-27T14:24:00.538Z,3.17
2018-08-27T14:26:28.997Z,3.50
2018-08-27T14:28:57.381Z,3.27
2018-08-27T14:31:25.799Z,3.20
2018-08-27T14:33:54.257Z,2.00
2018-08-27T14:36:22.677Z,3.13
2018-08-27T14:38:51.242Z,2.87
2018-08-27T14:41:19.528Z,3.30
2018-08-27T14:43:47.946Z,3.27
2018-08-27T14:46:16.366Z,3.70
2018-08-27T14:48:44.785Z,3.40
2018-08-27T14:51:13.209Z,3.10
2018-08-27T14:53:41.606Z,3.30
2018-08-27T14:56:10.087Z,2.70
2018-08-27T14:58:38.398Z,3.30
2018-08-27T15:01:10.193Z,2.73
2018-08-27T15:03:39.065Z,2.83
2018-08-27T15:06:07.570Z,2.77
2018-08-27T15:08:36.282Z,2.73
2018-08-27T15:11:04.734Z,3.30
2018-08-27T15:13:33.097Z,2.90
2018-08-27T15:16:01.482Z,3.03
2018-08-27T15:18:29.853Z,3.40
2018-08-27T15:20:58.284Z,3.17
2018-08-27T15:23:26.729Z,3.33
2018-08-27T15:25:55.922Z,2.80
2018-08-27T15:28:24.304Z,4.03
2018-08-27T15:30:52.757Z,3.50
2018-08-27T15:33:21.197Z,3.90
2018-08-27T15:35:49.593Z,3.43
2018-08-27T15:38:17.967Z,3.70
2018-08-27T15:40:46.348Z,4.60
2018-08-27T15:43:14.778Z,3.10
2018-08-27T15:45:48.369Z,3.43
2018-08-27T15:48:16.795Z,3.77
2018-08-27T15:50:45.277Z,3.23
2018-08-27T15:53:13.602Z,4.00
2018-08-27T15:55:42.067Z,3.63
2018-08-27T15:58:10.552Z,3.77
2018-08-27T16:00:38.962Z,3.60
2018-08-27T16:03:07.461Z,3.80
2018-08-27T16:05:35.955Z,4.10
2018-08-27T16:08:04.377Z,3.70
2018-08-27T16:10:32.866Z,3.60
2018-08-27T16:13:01.342Z,3.60
2018-08-27T16:15:29.773Z,3.07
2018-08-27T16:17:58.245Z,4.00
2018-08-27T16:20:27.765Z,4.50
2018-08-27T16:22:56.351Z,3.80
2018-08-27T16:25:24.812Z,4.00
2018-08-27T16:27:53.269Z,3.87
2018-08-27T16:30:21.698Z,4.20
2018-08-27T16:32:50.166Z,3.87
2018-08-27T16:35:18.569Z,4.10
2018-08-27T16:37:47.078Z,4.17
2018-08-27T16:40:15.497Z,3.73
2018-08-27T16:42:43.935Z,4.10
2018-08-27T16:45:12.423Z,3.60
2018-08-27T16:47:40.918Z,4.30
2018-08-27T16:50:09.416Z,3.60
2018-08-27T16:52:43.726Z,3.83
2018-08-27T16:55:12.189Z,4.30
2018-08-27T16:57:40.669Z,4.10
2018-08-27T17:00:10.873Z,3.90
2018-08-27T17:02:39.386Z,4.40
2018-08-27T17:05:08.298Z,4.43
2018-08-27T17:07:36.944Z,4.10
2018-08-27T17:10:05.727Z,4.50
2018-08-27T17:12:34.129Z,4.20
2018-08-27T17:15:02.609Z,3.80
2018-08-27T17:17:31.237Z,3.67
2018-08-27T17:19:59.900Z,4.23
2018-08-27T17:22:38.892Z,3.83
2018-08-27T17:25:07.631Z,3.83
2018-08-27T17:27:36.180Z,4.33
2018-08-27T17:30:04.654Z,4.13
2018-08-27T17:32:33.184Z,4.07
2018-08-27T17:35:09.553Z,3.60
2018-08-27T17:37:38.034Z,3.97
2018-08-27T17:40:07.153Z,4.20
2018-08-27T17:42:35.609Z,3.70
2018-08-27T17:45:04.137Z,4.03
2018-08-27T17:47:38.805Z,4.43
2018-08-27T17:50:08.768Z,3.60
2018-08-27T17:52:37.705Z,4.50
2018-08-27T17:55:06.318Z,4.20
2018-08-27T17:57:34.774Z,4.27
2018-08-27T18:00:03.240Z,4.07
2018-08-27T18:02:31.626Z,4.13
2018-08-27T18:05:00.176Z,4.37
2018-08-27T18:07:28.517Z,3.37
2018-08-27T18:10:20.318Z,4.27
2018-08-27T18:12:48.674Z,4.23
2018-08-27T18:15:17.067Z,3.97
2018-08-27T18:17:45.782Z,3.50
2018-08-27T18:20:14.190Z,3.60
2018-08-27T18:22:43.274Z,4.53
2018-08-27T18:28:11.524Z,4.00
2018-08-27T18:30:39.985Z,3.70
2018-08-27T18:33:08.378Z,3.20
2018-08-27T18:35:36.762Z,3.93
2018-08-27T18:38:10.031Z,3.73
2018-08-27T18:40:38.441Z,3.77
2018-08-27T18:43:06.849Z,3.57
2018-08-27T18:45:35.236Z,3.50
2018-08-27T18:48:03.596Z,3.87
2018-08-27T18:50:33.797Z,3.60
2018-08-27T18:53:02.341Z,3.70
2018-08-27T18:55:30.773Z,3.97
2018-08-27T18:57:59.141Z,4.00
2018-08-27T19:00:27.640Z,4.30
2018-08-27T19:02:56.050Z,4.60
2018-08-27T19:05:24.434Z,3.93
2018-08-27T19:07:52.882Z,3.87
2018-08-27T19:10:24.637Z,3.30
2018-08-27T19:12:53.243Z,3.20
2018-08-27T19:15:21.734Z,3.70
2018-08-27T19:17:50.186Z,3.33
2018-08-27T19:20:18.563Z,3.70
2018-08-27T19:22:46.946Z,3.77
2018-08-27T19:25:15.379Z,3.50
2018-08-27T19:27:44.750Z,3.90
2018-08-27T19:30:13.529Z,3.53
2018-08-27T19:32:41.932Z,3.13
2018-08-27T19:35:10.334Z,3.63
2018-08-27T19:37:38.740Z,3.10
2018-08-27T19:40:07.226Z,3.50
2018-08-27T19:42:35.591Z,3.30
2018-08-27T19:45:04.027Z,3.57
2018-08-27T19:47:32.404Z,3.60
2018-08-27T19:50:00.810Z,4.00
2018-08-27T19:52:29.217Z,3.60
2018-08-27T19:54:57.620Z,3.83
2018-08-27T19:57:26.126Z,4.10
2018-08-27T19:59:55.505Z,4.47
2018-08-27T20:02:23.944Z,3.97
2018-08-27T20:04:52.421Z,3.83
2018-08-27T20:07:20.896Z,3.90
2018-08-27T20:09:49.297Z,4.80
2018-08-27T20:12:17.783Z,4.20
2018-08-27T20:14:46.181Z,4.70
2018-08-27T20:17:14.619Z,4.40
2018-08-27T20:19:43.013Z,4.70
2018-08-27T20:22:11.481Z,4.23
2018-08-27T20:24:39.931Z,4.33
2018-08-27T20:27:08.362Z,4.80
2018-08-27T20:29:36.765Z,4.70
2018-08-27T20:32:05.232Z,4.80
2018-08-27T20:34:33.651Z,4.13
2018-08-27T20:37:02.072Z,4.07
2018-08-27T20:39:30.587Z,4.13
2018-08-27T20:41:58.907Z,4.27
2018-08-27T20:44:27.361Z,4.40
2018-08-27T20:46:55.790Z,4.10
2018-08-27T20:49:24.235Z,4.90
2018-08-27T20:51:52.663Z,4.60
2018-08-27T20:54:21.150Z,4.07
2018-08-27T20:56:49.573Z,4.40
2018-08-27T20:59:17.945Z,4.10
2018-08-27T21:01:46.382Z,4.43
2018-08-27T21:04:14.854Z,5.00
2018-08-27T21:06:43.157Z,4.17
2018-08-27T21:09:11.539Z,4.17
2018-08-27T21:11:39.928Z,4.97
2018-08-27T21:15:16.895Z,4.30
2018-08-27T21:17:49.713Z,4.30
2018-08-27T21:20:18.854Z,4.03
2018-08-27T21:22:47.422Z,4.47
2018-08-27T21:25:16.340Z,3.97
2018-08-27T21:27:45.585Z,4.50
2018-08-27T21:30:16.306Z,5.00
2018-08-27T21:32:44.687Z,4.20
2018-08-27T21:35:13.211Z,4.13
2018-08-27T21:37:41.576Z,4.53
2018-08-27T21:40:09.990Z,3.90
2018-08-27T21:42:38.387Z,4.50
2018-08-27T21:45:06.875Z,4.73
2018-08-27T21:47:35.294Z,4.47
2018-08-27T21:50:03.756Z,4.80
2018-08-27T21:52:32.145Z,4.60
2018-08-27T21:55:00.600Z,5.13
2018-08-27T21:57:29.001Z,4.43
2018-08-27T21:59:57.368Z,5.10
2018-08-27T22:02:31.149Z,4.87
2018-08-27T22:04:59.538Z,4.70
2018-08-27T22:07:27.969Z,5.03
2018-08-27T22:09:56.454Z,4.87
2018-08-27T22:12:24.893Z,5.50
2018-08-27T22:14:53.458Z,4.90
2018-08-27T22:17:22.061Z,4.80
2018-08-27T22:19:50.425Z,5.07
2018-08-27T22:22:18.823Z,4.77
2018-08-27T22:24:47.175Z,4.87
2018-08-27T22:27:15.533Z,4.53
2018-08-27T22:29:43.919Z,4.90
2018-08-27T22:32:13.286Z,5.53
2018-08-27T22:34:41.665Z,4.90
2018-08-27T22:37:10.021Z,5.03
2018-08-27T22:39:38.409Z,5.13
2018-08-27T22:42:06.781Z,5.10
2018-08-27T22:44:35.169Z,4.57
2018-08-27T22:47:03.569Z,4.60
2018-08-27T22:49:31.935Z,5.10
2018-08-27T22:52:01.091Z,4.63
2018-08-27T22:54:29.557Z,4.40
2018-08-27T22:56:57.928Z,4.90
2018-08-27T22:59:26.282Z,4.93
2018-08-27T23:01:54.729Z,4.97
2018-08-27T23:04:28.415Z,4.37
2018-08-27T23:06:56.857Z,4.53
2018-08-27T23:09:25.345Z,5.20
2018-08-27T23:11:53.716Z,4.80
2018-08-27T23:14:22.065Z,4.37
2018-08-27T23:16:50.651Z,4.23
2018-08-27T23:19:19.215Z,4.50
2018-08-27T23:21:47.661Z,4.47
2018-08-27T23:24:16.044Z,4.30
2018-08-27T23:26:44.385Z,4.60
2018-08-27T23:29:12.765Z,4.67
2018-08-27T23:31:41.164Z,4.43
2018-08-27T23:34:09.585Z,4.33
2018-08-27T23:36:38.040Z,4.10
2018-08-27T23:39:07.437Z,4.93
2018-08-27T23:41:35.829Z,4.43
2018-08-27T23:44:04.364Z,4.73
2018-08-27T23:46:32.770Z,4.27
2018-08-27T23:49:01.276Z,4.90
2018-08-27T23:51:29.629Z,4.43
2018-08-27T23:53:58.065Z,4.90
2018-08-27T23:56:26.474Z,4.33
2018-08-27T23:58:54.906Z,5.20
